createdAt,value
2022-08-17T00:00:43.295Z,22.30
2022-08-17T00:03:22.271Z,22.30
2022-08-17T00:06:02.652Z,22.20
2022-08-17T00:08:34.594Z,22.20
2022-08-17T00:11:06.162Z,22.20
2022-08-17T00:13:40.134Z,22.10
2022-08-17T00:16:12.408Z,22.10
2022-08-17T00:22:28.624Z,22.10
2022-08-17T00:24:17.245Z,22.10
2022-08-17T00:26:45.468Z,22.10
2022-08-17T00:34:15.626Z,22.00
2022-08-17T00:39:11.963Z,22.00
2022-08-17T00:46:42.236Z,21.90
2022-08-17T00:49:12.016Z,21.90
2022-08-17T00:54:29.085Z,21.90
2022-08-17T00:57:06.017Z,21.90
2022-08-17T00:59:39.712Z,21.90
2022-08-17T01:02:12.905Z,21.80
2022-08-17T01:07:10.639Z,21.80
2022-08-17T01:12:09.236Z,21.70
2022-08-17T01:19:36.498Z,21.70
2022-08-17T01:22:12.986Z,21.60
2022-08-17T01:27:11.482Z,21.60
2022-08-17T01:32:09.226Z,21.60
2022-08-17T01:37:19.129Z,21.60
2022-08-17T01:39:53.113Z,21.40
2022-08-17T01:44:57.670Z,21.50
2022-08-17T02:15:08.840Z,21.40
2022-08-17T02:25:02.499Z,21.30
2022-08-17T02:29:58.170Z,21.20
2022-08-17T02:32:28.477Z,21.20
2022-08-17T02:37:26.215Z,21.20
2022-08-17T02:55:17.956Z,21.00
2022-08-17T02:57:46.392Z,21.00
2022-08-17T03:00:21.634Z,21.00
2022-08-17T03:02:51.397Z,20.90
2022-08-17T03:05:21.699Z,20.90
2022-08-17T03:12:46.628Z,20.80
2022-08-17T03:15:21.186Z,20.80
2022-08-17T03:22:53.268Z,20.80
2022-08-17T03:25:24.220Z,20.80
2022-08-17T03:27:52.232Z,20.80
2022-08-17T03:32:52.531Z,20.90
2022-08-17T03:35:24.427Z,20.90
2022-08-17T03:51:42.797Z,21.10
2022-08-17T03:54:29.482Z,21.10
2022-08-17T03:57:07.694Z,21.10
2022-08-17T04:02:09.570Z,21.20
2022-08-17T04:04:37.943Z,21.20
2022-08-17T04:07:06.091Z,21.30
2022-08-17T04:14:53.699Z,21.30
2022-08-17T04:17:27.132Z,21.40
2022-08-17T04:22:33.099Z,21.40
2022-08-17T04:25:15.280Z,21.40
2022-08-17T04:33:06.230Z,21.80
2022-08-17T04:35:43.451Z,22.00
2022-08-17T04:38:13.626Z,22.00
2022-08-17T04:41:00.245Z,22.50
2022-08-17T04:43:28.434Z,22.80
2022-08-17T04:46:00.961Z,23.00
2022-08-17T04:48:36.159Z,23.30
2022-08-17T04:51:13.335Z,23.10
2022-08-17T04:53:41.765Z,23.60
2022-08-17T04:58:51.385Z,24.10
2022-08-17T05:01:23.739Z,24.30
2022-08-17T05:03:56.581Z,24.90
2022-08-17T05:16:19.189Z,26.20
2022-08-17T05:21:15.671Z,25.80
2022-08-17T05:29:00.470Z,26.60
2022-08-17T05:31:31.556Z,27.20
2022-08-17T05:39:17.059Z,28.20
2022-08-17T05:41:46.870Z,28.10
2022-08-17T05:46:48.081Z,28.10
2022-08-17T05:49:19.897Z,28.00
2022-08-17T05:54:31.244Z,28.20
2022-08-17T05:57:11.797Z,28.30
2022-08-17T06:00:07.788Z,28.50
2022-08-17T06:05:39.175Z,30.00
2022-08-17T06:16:03.135Z,30.80
2022-08-17T06:18:55.298Z,31.10
2022-08-17T06:21:32.079Z,31.20
2022-08-17T06:24:08.043Z,30.90
2022-08-17T06:26:43.167Z,30.70
2022-08-17T06:29:49.740Z,30.70
2022-08-17T06:34:46.643Z,32.30
2022-08-17T06:42:59.920Z,32.60
2022-08-17T06:45:49.245Z,32.50
2022-08-17T06:51:03.888Z,33.20
2022-08-17T06:53:43.083Z,33.60
2022-08-17T06:56:53.247Z,33.50
2022-08-17T07:09:28.920Z,33.50
2022-08-17T07:14:43.263Z,34.20
2022-08-17T07:17:15.772Z,33.80
2022-08-17T07:27:22.096Z,33.50
2022-08-17T07:32:27.264Z,34.50
2022-08-17T07:35:15.720Z,35.00
2022-08-17T07:37:46.294Z,34.90
2022-08-17T07:40:20.756Z,34.90
2022-08-17T07:43:15.639Z,35.50
2022-08-17T07:46:30.863Z,35.80
2022-08-17T07:49:20.218Z,35.10
2022-08-17T07:56:59.209Z,34.20
2022-08-17T07:59:28.681Z,35.00
2022-08-17T08:05:06.700Z,35.80
2022-08-17T08:07:51.218Z,35.40
2022-08-17T08:10:45.418Z,35.10
2022-08-17T08:13:25.758Z,34.40
2022-08-17T08:16:13.562Z,34.10
2022-08-17T08:18:55.954Z,33.80
2022-08-17T08:21:36.940Z,33.30
2022-08-17T08:27:20.200Z,34.50
2022-08-17T08:29:55.217Z,33.70
2022-08-17T08:35:13.231Z,33.90
2022-08-17T08:40:40.653Z,33.60
2022-08-17T08:43:42.652Z,34.00
2022-08-17T08:46:22.317Z,33.80
2022-08-17T08:49:39.021Z,34.00
2022-08-17T08:52:39.489Z,34.50
2022-08-17T08:55:38.148Z,34.50
2022-08-17T08:58:31.365Z,35.10
2022-08-17T09:01:02.941Z,34.40
2022-08-17T09:03:53.081Z,34.40
2022-08-17T09:06:56.692Z,34.10
2022-08-17T09:09:33.835Z,34.30
2022-08-17T09:12:25.905Z,34.10
2022-08-17T09:15:12.313Z,35.00
2022-08-17T09:17:59.400Z,35.00
2022-08-17T09:21:08.274Z,34.40
2022-08-17T09:23:46.023Z,34.30
2022-08-17T09:26:59.659Z,34.60
2022-08-17T09:29:35.270Z,35.00
2022-08-17T09:32:17.635Z,34.60
2022-08-17T09:34:52.798Z,34.30
2022-08-17T09:37:52.468Z,34.20
2022-08-17T09:40:40.222Z,34.10
2022-08-17T09:43:20.688Z,34.70
2022-08-17T09:45:57.820Z,34.20
2022-08-17T09:48:27.784Z,34.20
2022-08-17T09:51:24.490Z,34.50
2022-08-17T09:56:46.059Z,35.40
2022-08-17T10:02:13.518Z,34.70
2022-08-17T10:05:06.797Z,34.70
2022-08-17T10:07:42.670Z,34.10
2022-08-17T10:10:25.011Z,33.90
2022-08-17T10:13:28.019Z,33.50
2022-08-17T10:16:38.363Z,33.30
2022-08-17T10:22:26.421Z,35.40
2022-08-17T10:25:22.679Z,35.40
2022-08-17T10:28:06.492Z,34.40
2022-08-17T10:30:44.088Z,34.40
2022-08-17T10:33:23.736Z,34.80
2022-08-17T10:38:30.366Z,35.70
2022-08-17T10:44:36.664Z,34.70
2022-08-17T10:51:42.996Z,35.60
2022-08-17T10:56:59.350Z,36.40
2022-08-17T10:59:38.060Z,36.50
2022-08-17T11:04:34.380Z,35.90
2022-08-17T11:07:26.165Z,35.30
2022-08-17T11:09:59.538Z,35.80
2022-08-17T11:13:13.278Z,35.50
2022-08-17T11:16:07.660Z,35.30
2022-08-17T11:19:10.148Z,35.90
2022-08-17T11:27:12.357Z,36.10
2022-08-17T11:29:59.447Z,36.20
2022-08-17T11:35:22.031Z,36.20
2022-08-17T11:38:16.246Z,36.20
2022-08-17T11:41:13.723Z,36.50
2022-08-17T11:44:10.670Z,36.50
2022-08-17T11:50:27.595Z,35.50
2022-08-17T11:58:26.365Z,35.70
2022-08-17T12:01:09.315Z,34.90
2022-08-17T12:03:43.403Z,34.40
2022-08-17T12:06:40.100Z,34.50
2022-08-17T12:09:34.949Z,35.70
2022-08-17T12:12:14.314Z,35.70
2022-08-17T12:17:40.637Z,36.40
2022-08-17T12:20:21.882Z,36.10
2022-08-17T12:25:33.054Z,35.00
2022-08-17T12:28:06.839Z,34.40
2022-08-17T12:30:36.150Z,34.40
2022-08-17T12:33:04.293Z,33.20
2022-08-17T12:38:32.585Z,34.40
2022-08-17T12:40:58.772Z,34.10
2022-08-17T12:43:28.047Z,34.00
2022-08-17T12:48:59.093Z,33.70
2022-08-17T12:51:29.419Z,34.10
2022-08-17T12:53:57.578Z,34.10
2022-08-17T12:56:25.202Z,34.20
2022-08-17T12:58:56.559Z,34.50
2022-08-17T13:01:25.193Z,34.40
2022-08-17T13:03:57.374Z,34.30
2022-08-17T13:06:36.832Z,34.00
2022-08-17T13:09:35.701Z,33.70
2022-08-17T13:12:08.521Z,33.80
2022-08-17T13:14:36.430Z,33.40
2022-08-17T13:17:11.122Z,33.50
2022-08-17T13:19:49.683Z,33.60
2022-08-17T13:22:22.423Z,33.40
2022-08-17T13:24:54.296Z,32.90
2022-08-17T13:27:25.164Z,32.90
2022-08-17T13:29:57.648Z,32.10
2022-08-17T13:32:43.944Z,32.20
2022-08-17T13:38:13.518Z,32.50
2022-08-17T13:40:53.320Z,32.60
2022-08-17T13:43:44.810Z,32.80
2022-08-17T13:46:29.320Z,32.50
2022-08-17T13:49:06.372Z,32.50
2022-08-17T13:51:41.855Z,32.50
2022-08-17T13:54:30.611Z,32.20
2022-08-17T13:57:02.441Z,32.10
2022-08-17T13:59:55.230Z,32.00
2022-08-17T14:02:26.020Z,31.80
2022-08-17T14:04:56.549Z,31.60
2022-08-17T14:07:29.095Z,31.80
2022-08-17T14:10:01.533Z,31.80
2022-08-17T14:12:31.719Z,31.60
2022-08-17T14:14:59.532Z,31.50
2022-08-17T14:17:29.477Z,31.30
2022-08-17T14:19:57.615Z,31.30
2022-08-17T14:22:34.801Z,31.30
2022-08-17T14:25:03.183Z,31.00
2022-08-17T14:30:15.129Z,30.70
2022-08-17T14:32:43.226Z,30.70
2022-08-17T14:35:13.126Z,30.40
2022-08-17T14:40:11.905Z,30.20
2022-08-17T14:42:42.344Z,30.10
2022-08-17T14:47:59.339Z,29.70
2022-08-17T14:50:27.294Z,30.30
2022-08-17T14:55:27.004Z,29.80
2022-08-17T14:57:54.764Z,29.80
2022-08-17T15:00:22.813Z,29.80
2022-08-17T15:02:56.007Z,29.50
2022-08-17T15:05:26.044Z,29.40
2022-08-17T15:10:22.089Z,29.10
2022-08-17T15:20:35.679Z,29.00
2022-08-17T15:23:02.950Z,29.10
2022-08-17T15:25:32.243Z,29.20
2022-08-17T15:28:00.528Z,29.20
2022-08-17T15:32:58.625Z,29.10
2022-08-17T15:35:29.155Z,29.00
2022-08-17T15:38:09.890Z,28.90
2022-08-17T15:40:44.607Z,28.90
2022-08-17T15:43:15.662Z,28.80
2022-08-17T15:45:43.460Z,28.70
2022-08-17T15:48:11.715Z,28.60
2022-08-17T15:50:39.141Z,28.60
2022-08-17T15:53:07.011Z,28.60
2022-08-17T15:55:35.476Z,28.60
2022-08-17T15:58:03.508Z,28.60
2022-08-17T16:00:32.497Z,28.60
2022-08-17T16:04:01.439Z,28.70
2022-08-17T16:06:02.336Z,28.60
2022-08-17T16:08:30.548Z,28.60
2022-08-17T16:13:29.670Z,28.60
2022-08-17T16:15:57.677Z,28.60
2022-08-17T16:18:32.885Z,28.50
2022-08-17T16:21:21.336Z,28.50
2022-08-17T16:23:50.065Z,28.50
2022-08-17T16:28:48.306Z,28.50
2022-08-17T16:44:17.045Z,28.30
2022-08-17T16:52:04.438Z,28.20
2022-08-17T17:02:15.578Z,28.30
2022-08-17T17:05:03.214Z,28.20
2022-08-17T17:07:56.813Z,28.20
2022-08-17T17:10:37.970Z,27.90
2022-08-17T17:13:13.452Z,27.90
2022-08-17T17:16:15.830Z,27.90
2022-08-17T17:19:07.069Z,27.80
2022-08-17T17:24:30.295Z,27.50
2022-08-17T17:27:15.668Z,27.40
2022-08-17T17:32:40.791Z,26.90
2022-08-17T17:35:16.509Z,26.60
2022-08-17T17:37:45.468Z,26.50
2022-08-17T17:40:47.799Z,26.30
2022-08-17T17:46:26.537Z,25.90
2022-08-17T17:52:10.179Z,25.50
2022-08-17T17:57:37.091Z,25.10
2022-08-17T18:00:24.642Z,24.90
2022-08-17T18:08:44.760Z,24.40
2022-08-17T18:11:25.178Z,24.30
2022-08-17T18:16:29.781Z,23.90
2022-08-17T18:32:21.951Z,23.30
2022-08-17T18:34:53.188Z,23.20
2022-08-17T18:37:43.009Z,23.10
2022-08-17T18:50:41.323Z,22.80
2022-08-17T18:59:06.145Z,22.60
2022-08-17T19:01:53.569Z,22.50
2022-08-17T19:04:37.529Z,22.40
2022-08-17T19:09:47.510Z,22.10
2022-08-17T19:17:38.482Z,21.90
2022-08-17T19:20:16.644Z,21.90
2022-08-17T19:23:12.118Z,21.70
2022-08-17T19:28:23.128Z,21.50
2022-08-17T19:30:55.429Z,21.50
2022-08-17T19:36:03.634Z,21.30
2022-08-17T19:39:06.904Z,21.20
2022-08-17T19:44:27.076Z,21.10
2022-08-17T19:47:01.117Z,21.00
2022-08-17T19:55:22.204Z,20.90
2022-08-17T19:58:03.179Z,20.90
2022-08-17T20:00:34.734Z,20.80
2022-08-17T20:03:17.032Z,20.80
2022-08-17T20:06:12.998Z,20.70
2022-08-17T20:08:54.106Z,20.60
2022-08-17T20:11:38.071Z,20.60
2022-08-17T20:14:12.551Z,20.60
2022-08-17T20:21:52.576Z,20.30
2022-08-17T20:24:30.481Z,20.20
2022-08-17T20:27:08.646Z,20.10
2022-08-17T20:32:30.388Z,20.00
2022-08-17T20:35:30.552Z,20.00
2022-08-17T20:38:04.593Z,19.90
2022-08-17T20:40:35.633Z,19.80
2022-08-17T20:43:35.645Z,19.80
2022-08-17T20:46:31.830Z,19.70
2022-08-17T20:49:14.651Z,19.70
2022-08-17T20:52:01.601Z,19.70
2022-08-17T20:54:43.337Z,19.60
2022-08-17T20:57:34.606Z,19.60
2022-08-17T21:00:17.692Z,19.60
2022-08-17T21:02:49.612Z,19.50
2022-08-17T21:05:34.306Z,19.40
2022-08-17T21:10:43.890Z,19.30
2022-08-17T21:13:15.445Z,19.40
2022-08-17T21:15:48.672Z,19.30
2022-08-17T21:21:14.086Z,19.20
2022-08-17T21:24:11.967Z,19.30
2022-08-17T21:29:31.270Z,19.00
2022-08-17T21:37:24.152Z,18.90
2022-08-17T21:40:19.001Z,18.80
2022-08-17T21:42:58.220Z,18.80
2022-08-17T21:48:30.080Z,18.70
2022-08-17T21:51:02.371Z,18.70
2022-08-17T21:53:38.196Z,18.70
2022-08-17T21:56:07.406Z,18.60
2022-08-17T21:58:40.476Z,18.60
2022-08-17T22:01:24.330Z,18.70
2022-08-17T22:04:25.694Z,18.70
2022-08-17T22:22:30.647Z,18.70
2022-08-17T22:25:07.382Z,18.60
2022-08-17T22:30:59.638Z,18.50
2022-08-17T22:33:46.975Z,18.50
2022-08-17T22:36:25.542Z,18.50
2022-08-17T22:39:01.455Z,18.50
2022-08-17T22:41:51.019Z,18.50
2022-08-17T22:46:59.982Z,18.40
2022-08-17T22:49:53.124Z,18.40
2022-08-17T23:00:46.029Z,18.40
2022-08-17T23:03:20.124Z,18.40
2022-08-17T23:06:05.291Z,18.40
2022-08-17T23:08:35.785Z,18.40
2022-08-17T23:16:02.524Z,18.30
2022-08-17T23:23:26.853Z,18.00
2022-08-17T23:33:26.587Z,18.00
2022-08-17T23:41:00.950Z,17.90
2022-08-17T23:46:03.664Z,17.70
2022-08-17T23:51:27.851Z,17.60
2022-08-17T23:53:58.314Z,17.60
